Time;durP1;ratioP1;P1;durP2;ratioP2;P2;SDS_P1;SDS_P2;PMS_P1;PMS_P2;Temp;Humidity;BMP_temperature;BMP_pressure;BME280_temperature;BME280_humidity;BME280_pressure;Samples;Min_cycle;Max_cycle;Signal;HPM_P1;HPM_P2
2024/01/27 00:01:34;;;;;;;2.65;0.82;;;5.60;99.90;;;5.52;90.39;101937.09;5035956;28;20198;-61
2024/01/27 00:04:03;;;;;;;1.00;0.63;;;5.60;99.90;;;5.63;90.49;101945.00;5035295;28;20192;-61
2024/01/27 00:06:33;;;;;;;1.10;0.80;;;5.60;99.90;;;5.54;90.19;101935.13;5035206;28;20666;-60
2024/01/27 00:09:05;;;;;;;1.98;1.42;;;5.60;99.90;;;5.51;90.91;101939.94;5035322;28;20221;-61
2024/01/27 00:11:34;;;;;;;12.80;1.08;;;5.50;99.90;;;5.41;90.64;101939.94;5034548;28;20227;-62
2024/01/27 00:14:03;;;;;;;0.80;0.50;;;5.50;99.90;;;5.31;91.33;101941.78;5030325;28;20204;-61
2024/01/27 00:16:31;;;;;;;2.95;0.88;;;5.40;99.90;;;5.23;91.30;101944.31;5039933;28;20214;-58
2024/01/27 00:19:00;;;;;;;2.58;2.35;;;5.30;99.90;;;5.17;91.29;101936.84;5030083;28;20212;-61
2024/01/27 00:21:29;;;;;;;1.95;1.58;;;5.30;99.90;;;5.12;91.98;101933.75;5026894;28;20191;-60
2024/01/27 00:24:03;;;;;;;1.40;0.60;;;5.20;99.90;;;5.09;91.71;101947.44;5029539;28;20326;-61
2024/01/27 00:26:33;;;;;;;1.65;1.13;;;5.20;99.90;;;5.06;91.63;101943.22;5036587;28;20716;-60
2024/01/27 00:29:02;;;;;;;3.38;0.65;;;5.10;99.90;;;4.97;92.19;101956.63;5041061;28;20305;-57
2024/01/27 00:31:30;;;;;;;3.80;2.35;;;5.10;99.90;;;5.01;92.25;101960.72;5038199;28;20248;-57
2024/01/27 00:33:59;;;;;;;2.00;1.27;;;5.10;99.90;;;5.02;91.50;101967.78;5035171;28;20767;-61
2024/01/27 00:36:28;;;;;;;9.68;2.40;;;5.10;99.90;;;4.98;91.42;101969.91;5044746;28;20238;-57
2024/01/27 00:38:59;;;;;;;2.22;0.60;;;5.10;99.90;;;5.03;90.40;101973.00;5030217;28;20218;-62
2024/01/27 00:41:28;;;;;;;1.55;0.77;;;5.10;99.90;;;5.21;88.72;101967.78;5034978;28;20190;-59
2024/01/27 00:43:56;;;;;;;0.90;0.60;;;5.20;99.90;;;5.20;88.51;101968.78;5033765;28;20190;-61
2024/01/27 00:46:25;;;;;;;4.15;2.28;;;5.20;99.90;;;5.18;88.93;101966.22;5051192;28;20192;-56
2024/01/27 00:48:54;;;;;;;1.30;1.20;;;5.20;99.90;;;5.22;87.99;101969.50;5033253;28;20716;-62
2024/01/27 00:51:23;;;;;;;0.80;0.50;;;5.20;99.90;;;5.19;88.10;101970.59;5034832;28;20609;-61
2024/01/27 00:53:52;;;;;;;0.80;0.60;;;5.20;99.90;;;5.24;87.91;101973.72;5029596;28;20295;-61
2024/01/27 00:56:22;;;;;;;4.40;1.52;;;5.20;99.90;;;5.24;88.12;101983.59;5033520;28;20207;-57
2024/01/27 00:58:51;;;;;;;4.15;1.13;;;5.30;99.90;;;5.26;87.92;101981.63;5034150;28;20215;-60
2024/01/27 01:01:20;;;;;;;1.33;0.63;;;5.30;99.90;;;5.33;86.91;101972.00;5029621;28;20208;-59
2024/01/27 01:03:48;;;;;;;2.03;1.75;;;5.30;99.90;;;5.30;87.40;101972.31;5034712;28;20192;-60
2024/01/27 01:06:24;;;;;;;17.60;2.15;;;5.30;99.90;;;5.24;87.12;101975.53;5038143;28;20239;-61
2024/01/27 01:08:53;;;;;;;2.53;0.98;;;5.30;99.90;;;5.23;87.35;101998.00;5037123;28;20226;-60
2024/01/27 01:11:23;;;;;;;0.80;0.50;;;5.30;99.90;;;5.27;86.32;101987.84;5034202;28;20607;-56
2024/01/27 01:13:51;;;;;;;1.77;0.60;;;5.30;99.90;;;5.35;86.65;101991.50;5034124;28;20216;-59
2024/01/27 01:16:20;;;;;;;0.80;0.50;;;5.40;99.90;;;5.41;85.67;102004.38;5035059;28;20279;-61
2024/01/27 01:18:48;;;;;;;0.90;0.60;;;5.40;99.90;;;5.41;85.65;102000.84;5032656;28;20295;-60
2024/01/27 01:21:17;;;;;;;2.95;1.70;;;5.40;99.90;;;5.41;85.63;102000.84;5028497;28;20199;-61
2024/01/27 01:23:46;;;;;;;5.97;2.08;;;5.40;99.90;;;5.36;85.60;102009.31;5033927;28;20666;-61
2024/01/27 01:26:15;;;;;;;0.80;0.50;;;5.40;99.90;;;5.29;86.20;102008.19;5033198;28;20200;-63
2024/01/27 01:28:45;;;;;;;1.20;0.73;;;5.30;99.90;;;5.25;85.89;102001.41;5036065;28;20559;-62
2024/01/27 01:31:14;;;;;;;2.38;1.40;;;5.30;99.90;;;5.14;86.44;102004.22;5035296;28;20190;-63
2024/01/27 01:33:43;;;;;;;1.30;1.17;;;5.20;99.90;;;5.02;87.39;101995.47;5038315;28;20566;-61
2024/01/27 01:36:12;;;;;;;2.42;1.38;;;5.10;99.90;;;5.06;87.21;102004.06;5030274;28;20243;-63
2024/01/27 01:38:40;;;;;;;7.22;2.10;;;5.10;99.90;;;5.09;87.30;102003.78;5034631;28;20219;-61
2024/01/27 01:41:09;;;;;;;1.35;0.73;;;5.10;99.90;;;5.05;87.30;102003.22;5028612;28;20188;-61
2024/01/27 01:43:38;;;;;;;1.35;1.00;;;5.10;99.90;;;5.11;87.42;102005.34;5034509;28;20203;-62
2024/01/27 01:46:08;;;;;;;4.65;0.75;;;5.10;99.90;;;5.08;87.51;102005.59;5023581;28;20199;-61
2024/01/27 01:48:37;;;;;;;1.90;1.67;;;5.10;99.90;;;5.06;87.83;102009.44;5034364;28;20267;-59
2024/01/27 01:51:06;;;;;;;4.43;2.03;;;5.10;99.90;;;5.06;88.00;101996.88;5034189;28;20210;-60
2024/01/27 01:53:36;;;;;;;4.63;2.17;;;5.10;99.90;;;5.06;88.29;102007.59;5028474;28;20200;-60
2024/01/27 01:56:08;;;;;;;4.72;1.50;;;5.10;99.90;;;4.90;88.74;102006.44;5027172;28;20211;-61
2024/01/27 01:58:37;;;;;;;1.00;0.90;;;5.00;99.90;;;4.87;89.42;102012.94;5024267;28;20553;-60
2024/01/27 02:01:08;;;;;;;2.08;1.88;;;5.00;99.90;;;4.94;89.73;102010.56;5026710;28;20198;-63
2024/01/27 02:03:37;;;;;;;2.80;0.60;;;5.00;99.90;;;4.94;89.35;102023.97;5033237;28;20240;-60
2024/01/27 02:06:07;;;;;;;0.90;0.70;;;5.00;99.90;;;5.01;88.98;102031.31;5033758;28;20656;-61
2024/01/27 02:08:35;;;;;;;13.88;3.13;;;5.00;99.90;;;5.11;89.32;102034.00;5033319;28;20238;-60
2024/01/27 02:11:06;;;;;;;3.17;1.38;;;5.10;99.90;;;5.12;88.93;102031.19;5034685;28;20239;-63
2024/01/27 02:13:35;;;;;;;0.90;0.70;;;5.10;99.90;;;5.12;88.98;102038.41;5034111;28;20202;-63
2024/01/27 02:16:05;;;;;;;4.20;1.50;;;5.10;99.90;;;5.12;89.04;102047.31;5028272;28;20214;-59
2024/01/27 02:18:35;;;;;;;0.90;0.60;;;5.10;99.90;;;5.15;89.54;102043.47;5035061;28;20210;-61
2024/01/27 02:21:04;;;;;;;2.92;2.72;;;5.10;99.90;;;5.15;89.74;102051.53;5033390;28;20241;-60
2024/01/27 02:23:32;;;;;;;12.85;0.88;;;5.20;99.90;;;5.13;89.61;102050.84;5032823;28;20195;-60
2024/01/27 02:26:02;;;;;;;2.67;2.15;;;5.10;99.90;;;5.18;89.74;102043.22;5032988;28;20203;-61
2024/01/27 02:28:33;;;;;;;3.00;1.08;;;5.10;99.90;;;5.24;90.02;102048.00;5033966;28;20579;-60
2024/01/27 02:31:01;;;;;;;0.80;0.50;;;5.20;99.90;;;5.23;89.88;102054.34;5033080;28;20226;-59
2024/01/27 02:33:30;;;;;;;0.90;0.65;;;5.30;99.90;;;5.31;90.20;102067.94;5033200;28;20193;-60
2024/01/27 02:35:59;;;;;;;7.07;1.05;;;5.30;99.90;;;5.25;90.58;102068.50;5032752;28;20213;-59
2024/01/27 02:38:28;;;;;;;0.80;0.50;;;5.30;99.90;;;5.28;90.39;102068.22;5039181;28;20628;-60
2024/01/27 02:40:56;;;;;;;0.80;0.50;;;5.30;99.90;;;5.29;90.72;102067.22;5032994;28;20190;-58
2024/01/27 02:43:26;;;;;;;0.90;0.70;;;5.30;99.90;;;5.27;90.79;102069.22;5032878;28;20246;-61
2024/01/27 02:45:55;;;;;;;0.80;0.50;;;5.30;99.90;;;5.18;91.09;102067.38;5028812;28;20555;-60
2024/01/27 02:48:24;;;;;;;0.80;0.50;;;5.20;99.90;;;5.20;91.39;102060.88;5033912;28;20305;-63
2024/01/27 02:51:06;;;;;;;5.40;0.95;;;5.20;99.90;;;5.17;91.59;102069.22;5033971;28;20196;-61
2024/01/27 02:53:35;;;;;;;0.90;0.80;;;5.20;99.90;;;5.24;92.02;102066.78;5031099;28;20254;-62
2024/01/27 02:56:07;;;;;;;0.80;0.50;;;5.20;99.90;;;5.18;91.94;102056.63;5033237;28;20597;-61
2024/01/27 02:58:36;;;;;;;0.80;0.55;;;5.20;99.90;;;5.22;91.40;102068.78;5035886;28;20273;-61
2024/01/27 03:01:05;;;;;;;1.10;0.90;;;5.20;99.90;;;5.19;91.52;102067.22;5032459;28;20275;-59
2024/01/27 03:03:34;;;;;;;1.73;1.02;;;5.20;99.90;;;5.17;91.47;102069.22;5033827;28;20206;-62
2024/01/27 03:06:03;;;;;;;0.80;0.50;;;5.20;99.90;;;5.19;91.44;102082.47;5036319;28;20551;-58
2024/01/27 03:08:31;;;;;;;3.78;0.75;;;5.20;99.90;;;5.18;91.46;102086.16;5032156;28;20231;-60
2024/01/27 03:11:00;;;;;;;1.45;0.88;;;5.20;99.90;;;5.16;91.12;102082.75;5032486;28;20192;-61
2024/01/27 03:13:29;;;;;;;0.90;0.70;;;5.20;99.90;;;5.22;91.22;102082.22;5036410;28;20666;-62
2024/01/27 03:15:59;;;;;;;3.25;1.20;;;5.20;99.90;;;5.12;91.43;102086.69;5031397;28;20202;-58
2024/01/27 03:18:27;;;;;;;3.17;0.82;;;5.10;99.90;;;5.12;91.56;102078.66;5032085;28;20237;-57
2024/01/27 03:20:56;;;;;;;1.63;0.73;;;5.10;99.90;;;5.05;91.31;102072.13;5035928;28;20241;-61
2024/01/27 03:23:25;;;;;;;1.88;1.73;;;5.10;99.90;;;5.00;91.89;102093.16;5035905;28;20190;-60
2024/01/27 03:25:54;;;;;;;8.48;1.00;;;5.00;99.90;;;4.95;92.28;102095.41;5035619;28;20709;-61
2024/01/27 03:28:22;;;;;;;1.95;1.55;;;5.00;99.90;;;4.91;92.33;102094.81;5032046;28;20223;-61
2024/01/27 03:30:51;;;;;;;1.52;1.20;;;5.00;99.90;;;4.86;92.85;102097.06;5036038;28;20206;-60
2024/01/27 03:33:22;;;;;;;1.20;1.05;;;4.90;99.90;;;4.79;93.55;102102.13;5036079;28;20211;-61
2024/01/27 03:35:51;;;;;;;1.63;1.27;;;4.90;99.90;;;4.79;93.59;102103.97;5035549;28;20203;-61
2024/01/27 03:38:20;;;;;;;0.90;0.50;;;4.80;99.90;;;4.71;93.17;102088.53;5035301;28;20221;-61
2024/01/27 03:40:49;;;;;;;5.72;1.02;;;4.80;99.90;;;4.60;94.48;102096.66;5034626;28;20190;-63
2024/01/27 03:43:17;;;;;;;10.32;2.08;;;4.70;99.90;;;4.51;94.81;102097.47;5037521;28;20187;-60
2024/01/27 03:45:46;;;;;;;5.15;1.45;;;4.70;99.90;;;4.37;95.82;102089.78;5035856;28;20241;-60
2024/01/27 03:48:14;;;;;;;0.80;0.50;;;4.50;99.90;;;4.25;96.71;102097.06;5029967;28;20217;-60
2024/01/27 03:50:45;;;;;;;2.22;2.08;;;4.40;99.90;;;4.17;97.67;102088.81;5035514;28;20652;-61
2024/01/27 03:53:14;;;;;;;5.43;0.60;;;4.30;99.90;;;4.11;97.96;102093.88;5035896;28;20262;-60
2024/01/27 03:55:43;;;;;;;3.15;2.85;;;4.30;99.90;;;4.08;98.80;102111.06;5035000;28;20212;-62
2024/01/27 03:58:11;;;;;;;1.23;0.80;;;4.20;99.90;;;4.06;99.24;102109.50;5034901;28;20215;-62
2024/01/27 04:00:40;;;;;;;2.30;1.92;;;4.20;99.90;;;4.01;99.58;102114.41;5035309;28;20642;-62
2024/01/27 04:03:13;;;;;;;2.67;2.58;;;4.10;99.90;;;3.91;100.00;102120.53;5023564;28;20190;-59
2024/01/27 04:05:41;;;;;;;1.05;0.95;;;4.10;99.90;;;3.98;100.00;102126.19;5034790;28;20185;-61
2024/01/27 04:08:12;;;;;;;3.05;2.95;;;4.10;99.90;;;3.95;100.00;102131.81;5036117;28;20213;-60
2024/01/27 04:10:40;;;;;;;2.00;1.80;;;4.10;99.90;;;3.97;100.00;102129.84;5035466;28;20277;-60
2024/01/27 04:13:11;;;;;;;2.03;0.70;;;4.10;99.90;;;3.91;100.00;102136.59;5031037;28;20221;-61
2024/01/27 04:15:40;;;;;;;2.28;1.83;;;4.00;99.90;;;3.94;100.00;102128.28;5031732;28;20197;-61
2024/01/27 04:18:11;;;;;;;0.80;0.50;;;4.00;99.90;;;3.98;100.00;102128.03;5035082;28;20269;-62
2024/01/27 04:20:40;;;;;;;0.80;0.50;;;4.10;99.90;;;3.96;100.00;102132.69;5033958;28;20201;-61
2024/01/27 04:23:09;;;;;;;0.90;0.70;;;4.10;99.90;;;3.99;100.00;102138.63;5029334;28;20204;-62
2024/01/27 04:25:39;;;;;;;0.80;0.50;;;4.10;99.90;;;4.06;100.00;102141.63;5035097;28;20221;-61
2024/01/27 04:28:09;;;;;;;0.80;0.60;;;4.10;99.90;;;4.03;100.00;102160.63;5036458;28;20295;-61
2024/01/27 04:30:37;;;;;;;1.20;0.60;;;4.10;99.90;;;4.08;100.00;102151.22;5034046;28;20190;-60
2024/01/27 04:33:07;;;;;;;0.80;0.50;;;4.10;99.90;;;4.12;100.00;102159.84;5034629;28;20199;-59
2024/01/27 04:35:36;;;;;;;0.80;0.50;;;4.10;99.90;;;4.21;100.00;102159.91;5034254;28;20215;-61
2024/01/27 04:38:05;;;;;;;4.63;1.45;;;4.20;99.90;;;4.32;100.00;102167.06;5034282;28;20213;-58
2024/01/27 04:40:35;;;;;;;1.90;1.05;;;4.30;99.90;;;4.36;100.00;102169.34;5034446;28;20190;-61
2024/01/27 04:43:05;;;;;;;1.88;1.77;;;4.40;99.90;;;4.48;100.00;102180.84;5029615;28;20197;-61
2024/01/27 04:45:34;;;;;;;0.80;0.50;;;4.40;99.90;;;4.54;100.00;102193.75;5034236;28;20193;-61
2024/01/27 04:48:02;;;;;;;1.52;1.42;;;4.50;99.90;;;4.55;99.96;102195.41;5034011;28;20310;-62
2024/01/27 04:50:31;;;;;;;1.50;0.68;;;4.50;99.90;;;4.53;99.76;102192.03;5034239;28;20273;-62
2024/01/27 04:53:02;;;;;;;0.80;0.50;;;4.50;99.90;;;4.59;100.00;102199.56;5035236;28;20228;-59
2024/01/27 04:55:31;;;;;;;0.98;0.60;;;4.60;99.90;;;4.69;99.81;102197.78;5037779;28;20206;-63
2024/01/27 04:57:59;;;;;;;0.80;0.50;;;4.60;99.90;;;4.70;99.36;102215.56;5034008;28;20206;-61
2024/01/27 05:00:30;;;;;;;1.00;0.50;;;4.70;99.90;;;4.71;98.90;102211.91;5034072;28;20221;-60
2024/01/27 05:03:03;;;;;;;0.90;0.60;;;4.80;99.90;;;4.76;99.74;102204.31;5033513;28;20716;-61
2024/01/27 05:05:32;;;;;;;1.98;0.82;;;4.70;99.90;;;4.79;99.19;102213.94;5033964;28;20191;-61
2024/01/27 05:08:05;;;;;;;1.25;0.60;;;4.80;99.90;;;4.74;99.51;102205.44;5033413;28;20211;-61
2024/01/27 05:10:33;;;;;;;1.00;0.68;;;4.80;99.90;;;4.71;99.31;102214.59;5033810;28;20666;-62
2024/01/27 05:13:02;;;;;;;0.80;0.70;;;4.70;99.90;;;4.64;99.93;102225.97;5035646;28;20213;-56
2024/01/27 05:15:32;;;;;;;0.80;0.60;;;4.70;99.90;;;4.69;100.00;102229.97;5041619;28;20193;-61
2024/01/27 05:18:01;;;;;;;3.17;2.70;;;4.70;99.90;;;4.62;100.00;102227.94;5048419;28;20589;-59
2024/01/27 05:20:29;;;;;;;10.18;1.85;;;4.70;99.90;;;4.59;100.00;102229.06;5031918;28;20205;-60
2024/01/27 05:22:58;;;;;;;0.80;0.50;;;4.70;99.90;;;4.64;100.00;102234.88;5030747;28;20187;-62
2024/01/27 05:25:26;;;;;;;2.95;1.02;;;4.70;99.90;;;4.60;100.00;102237.94;5033850;28;20277;-62
2024/01/27 05:27:55;;;;;;;1.05;0.95;;;4.60;99.90;;;4.62;100.00;102236.81;5033523;28;20243;-58
2024/01/27 05:30:24;;;;;;;0.90;0.70;;;4.70;99.90;;;4.63;100.00;102235.00;5032118;28;20198;-60
2024/01/27 05:32:54;;;;;;;4.30;0.70;;;4.60;99.90;;;4.59;100.00;102229.06;5025664;28;20202;-55
2024/01/27 05:35:22;;;;;;;0.80;0.50;;;4.60;99.90;;;4.60;100.00;102246.81;5027829;28;20656;-60
2024/01/27 05:37:51;;;;;;;0.80;0.60;;;4.70;99.90;;;4.58;100.00;102243.44;5032843;28;20224;-58
2024/01/27 05:40:20;;;;;;;0.85;0.73;;;4.60;99.90;;;4.66;100.00;102240.94;5046305;28;20191;-60
2024/01/27 05:42:49;;;;;;;3.67;1.08;;;4.60;99.90;;;4.63;100.00;102245.72;5033826;28;20602;-58
2024/01/27 05:45:18;;;;;;;0.80;0.60;;;4.60;99.90;;;4.65;100.00;102244.59;5033243;28;20202;-55
2024/01/27 05:47:46;;;;;;;1.52;0.80;;;4.70;99.90;;;4.71;100.00;102254.81;5033384;28;20220;-58
2024/01/27 05:50:17;;;;;;;1.50;1.15;;;4.70;99.90;;;4.68;100.00;102252.41;5038272;28;20191;-62
2024/01/27 05:52:45;;;;;;;1.25;0.60;;;4.70;99.90;;;4.73;100.00;102257.38;5032985;28;20209;-61
2024/01/27 05:55:14;;;;;;;2.53;1.13;;;4.70;99.90;;;4.79;100.00;102255.00;5026213;28;20668;-62
2024/01/27 05:57:42;;;;;;;10.88;0.85;;;4.80;99.90;;;4.81;100.00;102263.78;5033183;28;20306;-59
2024/01/27 06:00:15;;;;;;;0.93;0.82;;;4.80;99.90;;;4.84;100.00;102256.44;5040830;28;20190;-60
2024/01/27 06:02:43;;;;;;;1.40;1.30;;;4.90;99.90;;;4.87;100.00;102265.06;5033301;28;20624;-61
2024/01/27 06:05:12;;;;;;;1.13;0.95;;;4.90;99.90;;;4.89;100.00;102264.97;5030917;28;20702;-59
2024/01/27 06:07:43;;;;;;;1.10;1.00;;;4.90;99.90;;;4.90;99.71;102262.13;5032859;28;20205;-62
2024/01/27 06:10:11;;;;;;;1.65;0.98;;;4.90;99.90;;;4.95;99.57;102267.09;5031636;28;20265;-62
2024/01/27 06:12:41;;;;;;;0.90;0.80;;;4.90;99.90;;;4.96;99.65;102271.47;5030270;28;20203;-61
2024/01/27 06:15:10;;;;;;;2.38;1.23;;;4.90;99.90;;;5.03;99.21;102276.19;5033359;28;20285;-63
2024/01/27 06:17:39;;;;;;;1.50;1.35;;;5.00;99.90;;;4.96;99.47;102285.75;5033009;28;20587;-59
2024/01/27 06:20:09;;;;;;;0.90;0.70;;;5.00;99.90;;;4.99;99.38;102279.25;5043813;28;20244;-61
2024/01/27 06:22:38;;;;;;;1.10;0.70;;;5.00;99.90;;;5.00;99.39;102276.44;5026312;28;20229;-61
2024/01/27 06:25:10;;;;;;;4.82;1.60;;;5.00;99.90;;;5.01;99.30;102278.16;5032319;28;20205;-61
2024/01/27 06:27:41;;;;;;;3.17;2.67;;;5.00;99.90;;;5.01;99.59;102278.16;5032053;28;20210;-61
2024/01/27 06:30:11;;;;;;;6.50;1.15;;;5.00;99.90;;;4.97;99.47;102297.31;5030679;28;20194;-60
2024/01/27 06:32:40;;;;;;;5.10;1.17;;;5.00;99.90;;;4.97;99.97;102305.38;5032263;28;20228;-62
2024/01/27 06:35:09;;;;;;;0.90;0.80;;;5.00;99.90;;;4.95;100.00;102297.44;5032546;28;20185;-62
2024/01/27 06:37:38;;;;;;;1.02;0.60;;;5.00;99.90;;;4.95;100.00;102302.81;5032388;28;20230;-61
2024/01/27 06:40:10;;;;;;;1.23;0.70;;;5.00;99.90;;;4.98;100.00;102307.94;5028144;28;20193;-61
2024/01/27 06:42:38;;;;;;;0.80;0.50;;;5.00;99.90;;;4.98;100.00;102317.81;5032693;28;20191;-57
2024/01/27 06:45:07;;;;;;;0.80;0.50;;;5.00;99.90;;;5.00;100.00;102318.50;5028497;28;20217;-60
2024/01/27 06:47:36;;;;;;;1.48;0.80;;;5.00;99.90;;;4.98;100.00;102331.22;5031756;28;20264;-61
2024/01/27 06:50:06;;;;;;;0.90;0.60;;;5.00;99.90;;;4.98;100.00;102336.59;5033043;28;20595;-61
2024/01/27 06:52:35;;;;;;;1.25;1.15;;;5.00;99.90;;;4.98;100.00;102340.13;5032499;28;20221;-63
2024/01/27 06:55:06;;;;;;;2.88;1.05;;;5.00;99.90;;;5.01;100.00;102339.00;5026212;28;20224;-61
2024/01/27 06:57:36;;;;;;;1.00;0.90;;;5.00;99.90;;;4.98;100.00;102353.56;5027843;28;20316;-62
2024/01/27 07:00:07;;;;;;;1.10;0.93;;;5.00;99.90;;;5.09;100.00;102350.78;5031737;28;20240;-62
2024/01/27 07:02:36;;;;;;;0.82;0.55;;;5.00;99.90;;;5.09;100.00;102349.91;5030350;28;20222;-59
2024/01/27 07:05:06;;;;;;;0.90;0.60;;;5.10;99.90;;;5.05;100.00;102353.84;5031872;28;20192;-59
2024/01/27 07:07:34;;;;;;;4.10;1.88;;;5.10;99.90;;;5.06;100.00;102360.94;5028600;28;20674;-61
2024/01/27 07:10:03;;;;;;;0.80;0.50;;;5.10;99.90;;;5.11;100.00;102364.06;5033785;28;20214;-60
2024/01/27 07:12:32;;;;;;;2.47;2.28;;;5.10;99.90;;;5.08;100.00;102377.75;5032557;28;20196;-61
2024/01/27 07:15:02;;;;;;;3.03;1.27;;;5.10;99.90;;;5.07;100.00;102384.09;5034097;28;20200;-59
2024/01/27 07:17:31;;;;;;;1.60;1.23;;;5.10;99.90;;;5.17;100.00;102395.75;5031989;28;20219;-61
2024/01/27 07:20:55;;;;;;;2.45;1.17;;;5.10;99.90;;;5.13;100.00;102386.28;5034376;28;20217;-61
2024/01/27 07:23:23;;;;;;;0.95;0.70;;;5.10;99.90;;;5.16;100.00;102399.41;5041382;28;20266;-61
2024/01/27 07:25:52;;;;;;;10.00;1.55;;;5.10;99.90;;;5.14;100.00;102387.94;5032373;28;20217;-59
2024/01/27 07:28:21;;;;;;;3.35;0.70;;;5.20;99.90;;;5.12;100.00;102392.63;5035992;28;20223;-61
2024/01/27 07:30:51;;;;;;;1.73;1.63;;;5.10;99.90;;;5.15;100.00;102395.03;5036141;28;20190;-59
2024/01/27 07:33:19;;;;;;;1.98;1.05;;;5.10;99.90;;;5.18;100.00;102408.22;5031485;28;20193;-58
2024/01/27 07:35:48;;;;;;;6.25;1.35;;;5.20;99.90;;;5.29;100.00;102405.44;5031967;28;20602;-60
2024/01/27 07:38:16;;;;;;;1.10;0.95;;;5.20;99.90;;;5.31;100.00;102413.38;5037618;28;20227;-61
2024/01/27 07:40:45;;;;;;;0.80;0.50;;;5.20;99.90;;;5.32;100.00;102413.25;5032165;28;20672;-57
2024/01/27 07:43:13;;;;;;;2.08;1.98;;;5.30;99.90;;;5.34;99.58;102413.94;5032167;28;20211;-57
2024/01/27 07:45:42;;;;;;;2.67;0.93;;;5.30;99.90;;;5.31;100.00;102424.97;5031520;28;20275;-61
2024/01/27 07:48:12;;;;;;;0.80;0.50;;;5.30;99.90;;;5.25;100.00;102430.84;5026444;28;20216;-61
2024/01/27 07:50:45;;;;;;;0.82;0.55;;;5.30;99.90;;;5.41;99.98;102422.34;5031877;28;20741;-60
2024/01/27 07:53:14;;;;;;;1.00;0.60;;;5.30;99.90;;;5.41;99.98;102436.63;5030513;28;20411;-61
2024/01/27 07:55:42;;;;;;;12.40;0.98;;;5.40;99.90;;;5.48;99.70;102427.03;5031496;28;20499;-61
2024/01/27 07:58:11;;;;;;;1.20;1.02;;;5.40;99.90;;;5.44;99.36;102447.09;5032071;28;20660;-61
2024/01/27 08:00:40;;;;;;;2.45;0.63;;;5.40;99.90;;;5.38;99.66;102446.75;5040971;28;20741;-58
2024/01/27 08:03:09;;;;;;;6.03;2.20;;;5.40;99.90;;;5.54;98.48;102447.16;5038751;28;20218;-60
2024/01/27 08:05:39;;;;;;;8.63;1.05;;;5.50;99.90;;;5.60;98.74;102449.31;5036546;28;20184;-61
2024/01/27 08:08:08;;;;;;;0.80;0.50;;;5.50;99.90;;;5.62;98.69;102453.56;5035063;28;20573;-60
2024/01/27 08:10:37;;;;;;;0.80;0.50;;;5.60;99.90;;;5.61;98.04;102454.56;5038483;28;20189;-60
2024/01/27 08:13:06;;;;;;;2.05;0.90;;;5.60;99.90;;;5.66;98.09;102456.84;5035777;28;20194;-60
2024/01/27 08:15:35;;;;;;;1.05;0.77;;;5.60;99.90;;;5.62;98.37;102458.91;5040895;28;20199;-61
2024/01/27 08:18:05;;;;;;;4.13;0.70;;;5.60;99.90;;;5.71;97.96;102457.31;5034431;28;20211;-61
2024/01/27 08:20:33;;;;;;;1.95;1.85;;;5.60;99.90;;;5.91;96.52;102447.50;5034818;28;20275;-61
2024/01/27 08:23:04;;;;;;;2.55;0.70;;;5.80;99.90;;;5.93;96.97;102454.47;5032547;28;20227;-60
2024/01/27 08:25:35;;;;;;;2.33;2.13;;;5.90;99.90;;;5.91;96.62;102455.56;5038363;28;20192;-61
2024/01/27 08:28:04;;;;;;;1.70;0.88;;;5.90;99.90;;;6.01;96.13;102462.69;5033735;28;20217;-61
2024/01/27 08:30:33;;;;;;;1.30;0.88;;;5.90;99.90;;;5.89;96.08;102479.06;5035999;28;20196;-61
2024/01/27 08:33:02;;;;;;;0.90;0.60;;;5.90;99.90;;;6.00;96.13;102478.97;5035961;28;20955;-60
2024/01/27 08:35:31;;;;;;;1.00;0.90;;;5.90;99.90;;;5.99;96.02;102485.34;5035636;28;20217;-60
2024/01/27 08:37:59;;;;;;;0.90;0.65;;;5.90;99.90;;;5.96;95.73;102488.28;5034869;28;20244;-61
2024/01/27 08:40:32;;;;;;;12.00;2.20;;;5.90;99.90;;;6.06;95.26;102475.75;5035170;28;20295;-61
2024/01/27 08:43:01;;;;;;;2.85;2.63;;;6.00;99.90;;;6.08;95.53;102493.44;5034627;28;20249;-60
2024/01/27 08:45:29;;;;;;;1.23;0.63;;;6.00;99.90;;;6.04;94.87;102493.84;5026907;28;20200;-62
2024/01/27 08:47:58;;;;;;;1.10;0.70;;;6.00;99.90;;;6.25;95.03;102489.25;5034170;28;20216;-62
2024/01/27 08:50:26;;;;;;;8.27;1.70;;;6.10;99.90;;;6.31;94.24;102491.41;5034630;28;20200;-59
2024/01/27 08:52:55;;;;;;;1.30;0.82;;;6.20;99.90;;;6.18;94.30;102484.56;5036142;28;20208;-59
2024/01/27 08:55:24;;;;;;;1.38;0.70;;;6.20;99.90;;;6.32;94.28;102493.13;5034030;28;20201;-62
2024/01/27 08:57:54;;;;;;;1.48;1.15;;;6.20;99.90;;;6.39;93.52;102494.25;5027478;28;20732;-60
2024/01/27 09:00:23;;;;;;;1.60;0.75;;;6.30;99.90;;;6.28;93.84;102493.53;5035371;28;20220;-60
2024/01/27 09:02:53;;;;;;;4.13;0.57;;;6.30;99.90;;;6.22;93.86;102500.28;5035457;28;20196;-61
2024/01/27 09:05:22;;;;;;;2.70;1.65;;;6.20;99.90;;;6.32;94.29;102500.34;5054904;28;20728;-62
2024/01/27 09:07:50;;;;;;;12.13;1.30;;;6.20;99.90;;;6.21;93.79;102509.34;5033666;28;20306;-61
2024/01/27 09:10:19;;;;;;;1.35;0.95;;;6.20;99.90;;;6.38;94.31;102502.50;5044293;28;20192;-60
2024/01/27 09:12:47;;;;;;;6.85;1.50;;;6.30;99.90;;;6.59;92.76;102513.16;5030732;28;20200;-60
2024/01/27 09:15:18;;;;;;;7.38;1.95;;;6.40;99.90;;;6.40;92.59;102501.34;5039068;28;20255;-61
2024/01/27 09:17:48;;;;;;;0.82;0.65;;;6.40;99.90;;;6.45;92.51;102515.25;5033776;28;20283;-59
2024/01/27 09:20:17;;;;;;;4.40;0.82;;;6.40;99.90;;;6.70;92.33;102507.66;5034019;28;20197;-62
2024/01/27 09:22:47;;;;;;;1.55;0.95;;;6.50;99.90;;;6.67;91.74;102503.44;5033849;28;20212;-59
2024/01/27 09:25:16;;;;;;;0.80;0.50;;;6.60;99.90;;;6.53;91.67;102507.34;5034098;28;20193;-57
2024/01/27 09:27:45;;;;;;;0.80;0.50;;;6.50;99.90;;;6.68;91.66;102501.59;5028461;28;20209;-55
2024/01/27 09:30:14;;;;;;;0.90;0.73;;;6.60;99.90;;;6.67;91.01;102513.34;5030417;28;20221;-59
2024/01/27 09:32:45;;;;;;;1.25;0.70;;;6.60;99.90;;;6.70;90.08;102515.75;5033588;28;20269;-59
2024/01/27 09:35:14;;;;;;;3.42;2.95;;;6.60;99.90;;;6.61;91.22;102525.50;5033483;28;20197;-62
2024/01/27 09:37:45;;;;;;;1.10;1.00;;;6.60;99.90;;;6.66;90.36;102541.22;5033506;28;20220;-60
2024/01/27 09:40:14;;;;;;;0.80;0.40;;;6.60;99.90;;;6.64;91.05;102537.81;5030665;28;20213;-59
2024/01/27 09:42:51;;;;;;;0.88;0.70;;;6.60;99.90;;;6.60;90.25;102533.69;5033375;28;20190;-60
2024/01/27 09:45:22;;;;;;;1.10;1.00;;;6.60;99.90;;;6.70;90.39;102542.66;5035680;28;20224;-60
2024/01/27 09:47:54;;;;;;;1.55;0.95;;;6.60;99.90;;;6.82;90.29;102544.25;5029218;28;20244;-62
2024/01/27 09:50:24;;;;;;;3.85;2.08;;;6.70;99.90;;;6.79;90.51;102544.50;5033368;28;20240;-62
2024/01/27 09:52:53;;;;;;;0.88;0.57;;;6.70;99.90;;;7.02;89.73;102540.59;5034415;28;20251;-61
2024/01/27 09:55:22;;;;;;;1.92;1.20;;;6.80;99.90;;;6.95;88.54;102534.94;5036425;28;20212;-61
2024/01/27 09:57:52;;;;;;;4.05;0.60;;;6.90;99.90;;;6.88;89.11;102539.16;5032824;28;20217;-59
2024/01/27 10:00:22;;;;;;;1.55;0.80;;;6.80;99.90;;;6.99;88.54;102546.25;5036631;28;20632;-62
2024/01/27 10:02:52;;;;;;;0.80;0.50;;;6.90;99.90;;;6.90;88.32;102552.47;5032888;28;20193;-63
2024/01/27 10:05:23;;;;;;;3.60;0.70;;;6.90;99.90;;;6.81;88.97;102556.00;5032528;28;20197;-61
2024/01/27 10:07:52;;;;;;;1.33;1.02;;;6.80;99.90;;;6.99;88.38;102552.50;5037114;28;20627;-60
2024/01/27 10:10:25;;;;;;;5.38;1.83;;;6.80;99.90;;;6.83;89.07;102554.00;5035528;28;20194;-56
2024/01/27 10:12:58;;;;;;;7.32;0.80;;;6.80;99.90;;;6.85;88.61;102565.50;5032596;28;20205;-62
2024/01/27 10:15:27;;;;;;;2.15;1.13;;;6.80;99.90;;;6.95;88.55;102566.38;5033621;28;20718;-58
2024/01/27 10:18:08;;;;;;;1.75;1.65;;;6.80;99.90;;;6.99;87.86;102557.03;5034504;28;20221;-60
2024/01/27 10:20:40;;;;;;;4.20;0.80;;;6.90;99.90;;;6.88;88.11;102562.53;5029124;28;20202;-58
2024/01/27 10:23:13;;;;;;;4.30;1.30;;;6.90;99.90;;;6.87;88.65;102563.53;5029513;28;20276;-62
2024/01/27 10:25:42;;;;;;;17.85;1.67;;;6.80;99.90;;;7.10;87.74;102558.75;5029464;28;20261;-62
2024/01/27 10:28:11;;;;;;;7.65;2.53;;;7.00;99.90;;;7.12;87.11;102554.91;5032316;28;20554;-61
2024/01/27 10:30:40;;;;;;;1.50;0.85;;;7.00;99.90;;;7.16;87.13;102563.59;5028777;28;20194;-61
2024/01/27 10:33:13;;;;;;;2.10;1.52;;;7.10;99.90;;;6.87;87.75;102566.22;5031415;28;20193;-59